Portland, Oregon
Traffic Map
Current Weather Conditions
Portland, Oregon
Overcast Light Rain
Overcast
53°
Feels Like: 53°
Wind Chill: 53° Ceiling: 5000
Heat Index: 53° Visibility: 10mi
Dew Point: 37° Wind: 9mph
Humidity: 55% Direction: 220° (SW)
Pressure: 30.24in Gusts: 0mph
Raw Report DataKPDX 290453Z 22008KT 10SM -RA BKN050 OVC065 12/03 A3024 RMK AO2 SLP239 P0000 T01170028
Traffic Incident Summary
Active as of:
Severity:
Category:
InformationThere was an issue retrieving the traffic information for this location. Please try a different location or try again shortly.
Advertisements
Track Severe Weather on mobile